createdAt,value
2023-02-09T00:01:50.461Z,10.40
2023-02-09T00:04:19.033Z,17.63
2023-02-09T00:06:47.573Z,13.67
2023-02-09T00:09:17.972Z,8.70
2023-02-09T00:12:03.616Z,17.50
2023-02-09T00:14:34.221Z,13.37
2023-02-09T00:17:03.675Z,9.47
2023-02-09T00:19:33.426Z,9.67
2023-02-09T00:22:02.285Z,10.33
2023-02-09T00:24:32.249Z,9.70
2023-02-09T00:27:00.841Z,10.10
2023-02-09T00:29:30.539Z,9.00
2023-02-09T00:31:59.087Z,8.77
2023-02-09T00:34:31.697Z,6.63
2023-02-09T00:37:00.325Z,6.03
2023-02-09T00:39:29.415Z,10.67
2023-02-09T00:42:11.189Z,9.30
2023-02-09T00:44:41.918Z,9.90
2023-02-09T00:47:11.118Z,9.23
2023-02-09T00:49:40.661Z,7.37
2023-02-09T00:52:10.114Z,11.57
2023-02-09T00:54:39.014Z,7.47
2023-02-09T00:57:09.055Z,7.83
2023-02-09T00:59:40.904Z,11.43
2023-02-09T01:02:10.511Z,6.83
2023-02-09T01:04:40.447Z,12.17
2023-02-09T01:07:09.421Z,8.93
2023-02-09T01:09:38.134Z,9.80
2023-02-09T01:12:10.374Z,11.00
2023-02-09T01:14:40.110Z,10.50
2023-02-09T01:17:08.741Z,9.27
2023-02-09T01:19:37.639Z,10.50
2023-02-09T01:22:06.309Z,6.83
2023-02-09T01:24:34.910Z,8.10
2023-02-09T01:27:03.500Z,10.07
2023-02-09T01:29:34.539Z,11.10
2023-02-09T01:32:03.311Z,8.67
2023-02-09T01:34:31.934Z,10.47
2023-02-09T01:37:00.483Z,8.70
2023-02-09T01:39:29.688Z,12.77
2023-02-09T01:41:58.297Z,11.20
2023-02-09T01:45:18.162Z,7.57
2023-02-09T01:47:52.424Z,11.63
2023-02-09T01:50:21.919Z,11.60
2023-02-09T01:52:51.198Z,14.20
2023-02-09T01:55:23.896Z,8.27
2023-02-09T01:57:56.838Z,10.07
2023-02-09T02:00:27.892Z,6.77
2023-02-09T02:03:01.376Z,8.73
2023-02-09T02:05:32.651Z,9.10
2023-02-09T02:08:05.869Z,10.70
2023-02-09T02:10:34.598Z,9.97
2023-02-09T02:13:04.470Z,7.80
2023-02-09T02:15:42.703Z,8.33
2023-02-09T02:18:31.869Z,8.23
2023-02-09T02:21:44.814Z,6.37
2023-02-09T02:24:55.531Z,7.77
2023-02-09T02:27:32.985Z,10.17
2023-02-09T02:30:20.309Z,6.50
2023-02-09T02:32:56.921Z,6.77
2023-02-09T02:35:35.380Z,6.87
2023-02-09T02:38:13.501Z,8.00
2023-02-09T02:40:51.196Z,8.10
2023-02-09T02:43:31.077Z,12.37
2023-02-09T02:46:03.755Z,7.13
2023-02-09T02:48:37.796Z,10.60
2023-02-09T02:51:09.344Z,7.07
2023-02-09T02:53:42.283Z,7.80
2023-02-09T02:56:14.089Z,6.37
2023-02-09T02:58:45.604Z,7.67
2023-02-09T03:01:19.730Z,7.13
2023-02-09T03:03:51.877Z,8.10
2023-02-09T03:06:20.465Z,9.20
2023-02-09T03:08:54.351Z,8.90
2023-02-09T03:11:25.058Z,6.77
2023-02-09T03:14:07.290Z,7.47
2023-02-09T03:16:41.587Z,8.07
2023-02-09T03:19:20.576Z,8.73
2023-02-09T03:21:52.849Z,7.73
2023-02-09T03:24:32.141Z,7.20
2023-02-09T03:27:08.207Z,8.67
2023-02-09T03:29:38.298Z,11.13
2023-02-09T03:32:08.249Z,7.87
2023-02-09T03:34:38.315Z,9.17
2023-02-09T03:37:07.311Z,9.03
2023-02-09T03:39:35.949Z,7.37
2023-02-09T03:42:04.516Z,7.03
2023-02-09T03:44:33.024Z,6.07
2023-02-09T03:47:03.244Z,7.10
2023-02-09T03:49:33.946Z,10.50
2023-02-09T03:52:04.885Z,7.40
2023-02-09T03:54:34.587Z,8.13
2023-02-09T03:57:03.410Z,9.67
2023-02-09T03:59:35.513Z,6.77
2023-02-09T04:02:05.593Z,9.83
2023-02-09T04:04:34.520Z,7.10
2023-02-09T04:07:04.608Z,7.90
2023-02-09T04:09:33.221Z,8.27
2023-02-09T04:12:01.756Z,7.10
2023-02-09T04:14:30.294Z,7.83
2023-02-09T04:16:58.745Z,7.97
2023-02-09T04:19:28.146Z,6.43
2023-02-09T04:21:56.658Z,7.30
2023-02-09T04:24:30.607Z,6.77
2023-02-09T04:26:59.105Z,8.17
2023-02-09T04:29:28.211Z,7.67
2023-02-09T04:31:56.722Z,8.17
2023-02-09T04:34:26.182Z,7.90
2023-02-09T04:36:55.002Z,7.90
2023-02-09T04:39:23.563Z,10.87
2023-02-09T04:41:53.451Z,8.70
2023-02-09T04:44:21.954Z,6.83
2023-02-09T04:46:51.434Z,7.97
2023-02-09T04:49:19.936Z,6.90
2023-02-09T04:51:48.582Z,7.23
2023-02-09T04:54:17.013Z,8.20
2023-02-09T04:56:45.511Z,10.43
2023-02-09T04:59:32.527Z,6.17
2023-02-09T05:02:01.478Z,7.27
2023-02-09T05:04:29.909Z,9.60
2023-02-09T05:06:58.457Z,7.90
2023-02-09T05:09:28.104Z,10.10
2023-02-09T05:11:56.627Z,7.57
2023-02-09T05:14:28.077Z,8.93
2023-02-09T05:16:56.628Z,11.13
2023-02-09T05:19:25.189Z,9.87
2023-02-09T05:21:54.563Z,7.97
2023-02-09T05:24:23.077Z,7.57
2023-02-09T05:26:51.711Z,9.17
2023-02-09T05:29:22.001Z,5.73
2023-02-09T05:31:52.413Z,8.03
2023-02-09T05:34:20.949Z,7.63
2023-02-09T05:36:49.521Z,6.07
2023-02-09T05:39:18.105Z,6.83
2023-02-09T05:42:05.235Z,6.97
2023-02-09T05:44:33.752Z,9.70
2023-02-09T05:47:03.646Z,4.80
2023-02-09T05:49:32.157Z,6.77
2023-02-09T05:52:00.784Z,8.67
2023-02-09T05:54:30.120Z,10.63
2023-02-09T05:56:58.693Z,8.33
2023-02-09T05:59:28.088Z,8.27
2023-02-09T06:01:56.579Z,5.87
2023-02-09T06:04:27.676Z,7.33
2023-02-09T06:06:56.986Z,6.90
2023-02-09T06:09:26.316Z,6.20
2023-02-09T06:11:55.087Z,9.93
2023-02-09T06:14:23.885Z,7.10
2023-02-09T06:16:52.509Z,6.73
2023-02-09T06:19:22.296Z,7.43
2023-02-09T06:21:52.265Z,7.33
2023-02-09T06:24:20.759Z,9.70
2023-02-09T06:26:49.367Z,7.33
2023-02-09T06:29:17.867Z,6.43
2023-02-09T06:31:46.670Z,11.00
2023-02-09T06:34:15.526Z,7.33
2023-02-09T06:36:44.033Z,6.87
2023-02-09T06:39:14.034Z,7.40
2023-02-09T06:41:42.606Z,5.63
2023-02-09T06:44:12.199Z,5.93
2023-02-09T06:46:40.967Z,12.10
2023-02-09T06:49:09.584Z,5.57
2023-02-09T06:51:38.427Z,6.13
2023-02-09T06:54:07.306Z,5.60
2023-02-09T06:56:37.374Z,6.73
2023-02-09T06:59:05.858Z,8.57
2023-02-09T07:01:34.469Z,6.80
2023-02-09T07:04:03.367Z,12.63
2023-02-09T07:06:32.074Z,11.90
2023-02-09T07:09:00.607Z,18.17
2023-02-09T07:11:30.660Z,18.90
2023-02-09T07:14:00.993Z,14.30
2023-02-09T07:16:29.786Z,14.90
2023-02-09T07:19:00.465Z,12.53
2023-02-09T07:21:29.029Z,7.27
2023-02-09T07:23:57.543Z,5.47
2023-02-09T07:26:26.227Z,5.20
2023-02-09T07:28:55.933Z,6.80
2023-02-09T07:31:27.370Z,7.27
2023-02-09T07:33:56.011Z,10.90
2023-02-09T07:36:24.897Z,8.90
2023-02-09T07:38:53.736Z,6.67
2023-02-09T07:41:25.438Z,10.00
2023-02-09T07:43:54.835Z,10.80
2023-02-09T07:46:25.719Z,6.37
2023-02-09T07:48:59.486Z,8.77
2023-02-09T07:51:30.477Z,7.60
2023-02-09T07:54:00.548Z,8.93
2023-02-09T07:56:29.976Z,8.13
2023-02-09T07:58:58.789Z,7.80
2023-02-09T08:01:27.442Z,9.63
2023-02-09T08:03:57.454Z,11.83
2023-02-09T08:06:41.303Z,8.60
2023-02-09T08:09:11.367Z,7.10
2023-02-09T08:11:45.797Z,5.93
2023-02-09T08:14:17.597Z,6.00
2023-02-09T08:16:46.708Z,16.17
2023-02-09T08:19:21.010Z,7.07
2023-02-09T08:21:50.947Z,8.57
2023-02-09T08:24:21.303Z,13.33
2023-02-09T08:26:49.855Z,7.83
2023-02-09T08:29:18.414Z,8.43
2023-02-09T08:31:47.117Z,6.70
2023-02-09T08:34:17.242Z,10.33
2023-02-09T08:36:45.825Z,13.90
2023-02-09T08:39:14.314Z,10.90
2023-02-09T08:41:44.082Z,9.27
2023-02-09T08:44:14.053Z,9.47
2023-02-09T08:46:46.803Z,8.23
2023-02-09T08:49:16.976Z,9.63
2023-02-09T08:51:47.189Z,9.97
2023-02-09T08:54:16.112Z,10.30
2023-02-09T08:56:44.626Z,12.47
2023-02-09T08:59:13.712Z,12.73
2023-02-09T09:01:42.740Z,10.87
2023-02-09T09:04:11.312Z,17.23
2023-02-09T09:06:41.636Z,14.97
2023-02-09T09:09:10.190Z,19.97
2023-02-09T09:11:38.727Z,26.60
2023-02-09T09:14:07.411Z,20.47
2023-02-09T09:16:36.026Z,20.40
2023-02-09T09:19:05.812Z,16.73
2023-02-09T09:21:34.968Z,17.93
2023-02-09T09:24:05.562Z,20.70
2023-02-09T09:26:35.224Z,26.33
2023-02-09T09:29:04.165Z,15.03
2023-02-09T09:31:33.652Z,9.60
2023-02-09T09:34:02.298Z,14.20
2023-02-09T09:36:30.987Z,10.20
2023-02-09T09:38:59.951Z,14.23
2023-02-09T09:41:32.999Z,8.63
2023-02-09T09:44:02.742Z,9.97
2023-02-09T09:46:37.221Z,11.50
2023-02-09T09:49:07.144Z,12.87
2023-02-09T09:51:41.040Z,12.07
2023-02-09T09:54:15.432Z,12.57
2023-02-09T09:56:45.591Z,11.70
2023-02-09T09:59:18.877Z,12.47
2023-02-09T10:01:48.478Z,10.53
2023-02-09T10:04:17.600Z,11.83
2023-02-09T10:06:48.789Z,10.83
2023-02-09T10:09:30.429Z,9.27
2023-02-09T10:12:09.400Z,8.87
2023-02-09T10:14:37.983Z,10.37
2023-02-09T10:17:07.718Z,10.50
2023-02-09T10:19:36.451Z,10.07
2023-02-09T10:22:05.385Z,6.77
2023-02-09T10:24:36.443Z,9.13
2023-02-09T10:27:10.995Z,10.10
2023-02-09T10:29:39.613Z,11.53
2023-02-09T10:32:16.752Z,6.73
2023-02-09T10:34:48.893Z,7.90
2023-02-09T10:37:23.451Z,12.63
2023-02-09T10:40:07.829Z,14.27
2023-02-09T10:42:40.573Z,5.80
2023-02-09T10:45:15.953Z,8.00
2023-02-09T10:47:57.742Z,6.40
2023-02-09T10:50:26.387Z,5.87
2023-02-09T10:53:01.185Z,5.23
2023-02-09T10:55:35.813Z,6.87
2023-02-09T10:58:18.578Z,10.23
2023-02-09T11:00:52.264Z,4.10
2023-02-09T11:03:25.476Z,4.93
2023-02-09T11:06:02.891Z,7.17
2023-02-09T11:08:45.074Z,4.67
2023-02-09T11:11:30.279Z,6.20
2023-02-09T11:14:01.107Z,4.80
2023-02-09T11:16:52.210Z,4.43
2023-02-09T11:19:52.776Z,6.33
2023-02-09T11:22:33.670Z,4.13
2023-02-09T11:25:12.527Z,4.87
2023-02-09T11:27:58.707Z,3.70
2023-02-09T11:30:45.885Z,4.77
2023-02-09T11:33:22.111Z,4.67
2023-02-09T11:36:01.162Z,6.47
2023-02-09T11:38:38.224Z,5.30
2023-02-09T11:41:26.825Z,5.40
2023-02-09T11:43:59.628Z,4.77
2023-02-09T11:46:32.249Z,6.63
2023-02-09T11:49:06.011Z,6.27
2023-02-09T11:51:38.591Z,4.07
2023-02-09T11:54:15.765Z,6.00
2023-02-09T11:56:48.356Z,5.17
2023-02-09T11:59:23.839Z,6.17
2023-02-09T12:02:03.308Z,5.97
2023-02-09T12:04:41.108Z,7.63
2023-02-09T12:07:16.585Z,6.17
2023-02-09T12:09:52.933Z,5.47
2023-02-09T12:12:27.276Z,5.43
2023-02-09T12:15:02.912Z,5.87
2023-02-09T12:17:41.203Z,4.23
2023-02-09T12:20:25.119Z,5.67
2023-02-09T12:23:01.883Z,5.47
2023-02-09T12:25:53.237Z,8.23
2023-02-09T12:28:44.794Z,5.03
2023-02-09T12:31:23.205Z,6.10
2023-02-09T12:34:29.090Z,5.07
2023-02-09T12:37:20.000Z,4.67
2023-02-09T12:40:23.953Z,3.73
2023-02-09T12:43:29.362Z,5.77
2023-02-09T12:46:20.304Z,4.00
2023-02-09T12:48:51.767Z,3.37
2023-02-09T12:51:49.040Z,3.23
2023-02-09T12:54:40.290Z,4.70
2023-02-09T12:57:56.579Z,4.63
2023-02-09T13:00:42.697Z,4.43
2023-02-09T13:03:19.680Z,3.10
2023-02-09T13:05:49.282Z,4.33
2023-02-09T13:08:33.078Z,8.37
2023-02-09T13:11:06.788Z,5.70
2023-02-09T13:13:44.423Z,4.50
2023-02-09T13:16:45.218Z,6.23
2023-02-09T13:19:31.813Z,9.30
2023-02-09T13:22:21.429Z,6.23
2023-02-09T13:25:01.183Z,6.90
2023-02-09T13:27:30.967Z,6.43
2023-02-09T13:30:00.781Z,5.40
2023-02-09T13:32:40.959Z,6.87
2023-02-09T13:35:20.591Z,6.63
2023-02-09T13:37:52.604Z,6.97
2023-02-09T13:40:25.620Z,5.07
2023-02-09T13:42:57.906Z,7.17
2023-02-09T13:45:28.299Z,5.30
2023-02-09T13:47:59.384Z,7.33
2023-02-09T13:50:29.599Z,4.17
2023-02-09T13:53:10.531Z,4.67
2023-02-09T13:55:40.980Z,7.43
2023-02-09T13:58:15.847Z,5.77
2023-02-09T14:00:46.622Z,5.40
2023-02-09T14:03:19.517Z,7.77
2023-02-09T14:05:52.729Z,10.33
2023-02-09T14:08:23.567Z,9.40
2023-02-09T14:10:58.724Z,7.43
2023-02-09T14:13:31.204Z,5.57
2023-02-09T14:16:08.072Z,11.73
2023-02-09T14:18:46.612Z,7.20
2023-02-09T14:21:19.597Z,7.00
2023-02-09T14:23:49.823Z,6.80
2023-02-09T14:26:24.229Z,7.03
2023-02-09T14:28:56.439Z,5.07
2023-02-09T14:31:26.991Z,8.50
2023-02-09T14:33:57.659Z,5.57
2023-02-09T14:36:32.588Z,5.73
2023-02-09T14:39:16.827Z,6.63
2023-02-09T14:41:59.485Z,8.80
2023-02-09T14:44:29.271Z,8.80
2023-02-09T14:46:59.466Z,4.27
2023-02-09T14:49:29.524Z,6.57
2023-02-09T14:52:04.839Z,5.53
2023-02-09T14:54:36.185Z,5.73
2023-02-09T14:57:06.157Z,6.10
2023-02-09T14:59:34.815Z,3.50
2023-02-09T15:02:03.436Z,6.43
2023-02-09T15:04:32.025Z,7.13
2023-02-09T15:07:04.247Z,4.57
2023-02-09T15:09:38.238Z,18.57
2023-02-09T15:12:09.484Z,17.50
2023-02-09T15:14:44.175Z,13.43
2023-02-09T15:17:17.940Z,9.67
2023-02-09T15:19:47.263Z,9.60
2023-02-09T15:22:16.989Z,14.70
2023-02-09T15:24:46.795Z,11.03
2023-02-09T15:27:24.258Z,11.57
2023-02-09T15:29:53.157Z,12.10
2023-02-09T15:32:23.781Z,13.93
2023-02-09T15:34:54.251Z,8.40
2023-02-09T15:37:27.104Z,8.30
2023-02-09T15:39:59.989Z,12.87
2023-02-09T15:42:47.016Z,12.70
2023-02-09T15:45:36.081Z,7.60
2023-02-09T15:48:05.400Z,7.93
2023-02-09T15:50:35.601Z,12.17
2023-02-09T15:53:07.255Z,9.13
2023-02-09T15:55:37.450Z,11.70
2023-02-09T15:58:14.263Z,15.40
2023-02-09T16:00:43.012Z,16.10
2023-02-09T16:03:16.634Z,17.57
2023-02-09T16:05:46.552Z,36.97
2023-02-09T16:08:21.077Z,38.20
2023-02-09T16:10:49.929Z,23.60
2023-02-09T16:13:21.558Z,19.20
2023-02-09T16:15:50.194Z,20.37
2023-02-09T16:18:18.784Z,19.77
2023-02-09T16:20:49.084Z,14.27
2023-02-09T16:23:21.331Z,21.23
2023-02-09T16:25:51.671Z,21.97
2023-02-09T16:28:22.706Z,25.97
2023-02-09T16:30:53.622Z,25.47
2023-02-09T16:33:23.646Z,18.23
2023-02-09T16:35:55.239Z,21.63
2023-02-09T16:38:25.860Z,13.93
2023-02-09T16:40:56.029Z,13.33
2023-02-09T16:43:26.427Z,10.87
2023-02-09T16:46:03.271Z,10.57
2023-02-09T16:48:34.741Z,13.77
2023-02-09T16:51:03.887Z,11.40
2023-02-09T16:53:36.527Z,17.17
2023-02-09T16:56:10.288Z,19.17
2023-02-09T16:58:40.556Z,20.27
2023-02-09T17:01:17.066Z,18.77
2023-02-09T17:03:50.500Z,22.23
2023-02-09T17:06:21.436Z,15.37
2023-02-09T17:08:50.467Z,10.93
2023-02-09T17:11:22.801Z,12.10
2023-02-09T17:13:52.818Z,8.70
2023-02-09T17:16:24.182Z,9.67
2023-02-09T17:18:55.014Z,11.17
2023-02-09T17:21:26.031Z,12.13
2023-02-09T17:23:55.552Z,14.43
2023-02-09T17:26:23.973Z,21.03
2023-02-09T17:28:54.172Z,14.87
2023-02-09T17:31:25.407Z,11.00
2023-02-09T17:33:57.050Z,15.87
2023-02-09T17:36:28.398Z,18.87
2023-02-09T17:38:58.910Z,15.93
2023-02-09T17:41:32.990Z,16.93
2023-02-09T17:44:24.054Z,18.17
2023-02-09T17:46:57.829Z,21.30
2023-02-09T17:49:27.076Z,17.10
2023-02-09T17:51:55.943Z,15.13
2023-02-09T17:54:24.566Z,11.87
2023-02-09T17:56:53.154Z,11.47
2023-02-09T17:59:23.230Z,13.73
2023-02-09T18:01:55.368Z,12.37
2023-02-09T18:04:27.461Z,15.10
2023-02-09T18:06:57.751Z,8.60
2023-02-09T18:09:27.113Z,9.07
2023-02-09T18:12:02.333Z,6.63
2023-02-09T18:14:34.204Z,7.67
2023-02-09T18:17:03.194Z,7.77
2023-02-09T18:19:33.192Z,8.13
2023-02-09T18:22:03.152Z,10.00
2023-02-09T18:24:34.472Z,10.43
2023-02-09T18:27:03.495Z,10.03
2023-02-09T18:29:33.493Z,7.73
2023-02-09T18:32:03.580Z,9.60
2023-02-09T18:34:32.456Z,4.80
2023-02-09T18:37:00.977Z,12.47
2023-02-09T18:39:30.874Z,3.17
2023-02-09T18:41:59.356Z,4.53
2023-02-09T18:44:31.427Z,6.40
2023-02-09T18:47:02.108Z,6.93
2023-02-09T18:49:31.768Z,6.23
2023-02-09T18:52:01.036Z,8.60
2023-02-09T18:54:31.359Z,7.10
2023-02-09T18:57:00.067Z,6.73
2023-02-09T18:59:32.361Z,3.83
2023-02-09T19:02:02.778Z,4.30
2023-02-09T19:04:31.238Z,5.37
2023-02-09T19:07:00.609Z,4.37
2023-02-09T19:09:29.866Z,7.17
2023-02-09T19:11:58.343Z,5.33
2023-02-09T19:14:38.823Z,4.87
2023-02-09T19:17:10.809Z,5.07
2023-02-09T19:19:40.084Z,4.43
2023-02-09T19:22:09.199Z,4.80
2023-02-09T19:24:38.289Z,5.67
2023-02-09T19:27:09.537Z,3.57
2023-02-09T19:29:39.238Z,3.73
2023-02-09T19:32:09.367Z,2.70
2023-02-09T19:34:41.192Z,3.97
2023-02-09T19:37:11.595Z,4.53
2023-02-09T19:39:41.553Z,6.10
2023-02-09T19:42:11.508Z,5.43
2023-02-09T19:44:40.287Z,4.63
2023-02-09T19:47:10.277Z,4.43
2023-02-09T19:49:39.237Z,16.43
2023-02-09T19:52:08.035Z,19.87
2023-02-09T19:54:36.519Z,20.10
2023-02-09T19:57:05.773Z,15.43
2023-02-09T19:59:34.525Z,9.10
2023-02-09T20:02:03.089Z,6.43
2023-02-09T20:04:34.347Z,4.87
2023-02-09T20:07:03.830Z,3.63
2023-02-09T20:09:32.303Z,5.87
2023-02-09T20:12:00.907Z,4.87
2023-02-09T20:14:31.748Z,4.50
2023-02-09T20:17:02.125Z,4.13
2023-02-09T20:19:32.334Z,6.10
2023-02-09T20:22:00.947Z,9.20
2023-02-09T20:24:30.504Z,7.30
2023-02-09T20:27:00.203Z,7.40
2023-02-09T20:29:29.540Z,10.83
2023-02-09T20:31:58.322Z,5.67
2023-02-09T20:34:27.285Z,7.83
2023-02-09T20:36:57.668Z,11.40
2023-02-09T20:39:26.482Z,6.13
2023-02-09T20:42:15.922Z,6.33
2023-02-09T20:45:02.651Z,5.00
2023-02-09T20:47:31.231Z,7.13
2023-02-09T20:50:00.799Z,5.83
2023-02-09T20:52:31.415Z,5.90
2023-02-09T20:54:59.979Z,4.80
2023-02-09T20:57:31.269Z,4.83
2023-02-09T21:00:00.453Z,6.90
2023-02-09T21:02:29.484Z,6.60
2023-02-09T21:04:59.729Z,6.07
2023-02-09T21:07:28.456Z,4.47
2023-02-09T21:09:58.364Z,6.83
2023-02-09T21:12:27.184Z,4.30
2023-02-09T21:14:56.732Z,6.67
2023-02-09T21:17:25.307Z,7.00
2023-02-09T21:19:53.897Z,6.37
2023-02-09T21:22:22.401Z,6.80
2023-02-09T21:24:50.938Z,7.60
2023-02-09T21:27:20.836Z,12.53
2023-02-09T21:29:49.635Z,9.17
2023-02-09T21:32:18.469Z,7.63
2023-02-09T21:34:47.075Z,7.07
2023-02-09T21:37:15.639Z,8.60
2023-02-09T21:39:44.154Z,10.87
2023-02-09T21:42:30.868Z,10.63
2023-02-09T21:45:01.191Z,10.67
2023-02-09T21:47:31.654Z,11.47
2023-02-09T21:50:00.818Z,9.33
2023-02-09T21:52:31.717Z,10.17
2023-02-09T21:55:00.260Z,10.77
2023-02-09T21:57:29.694Z,9.10
2023-02-09T21:59:59.177Z,9.83
2023-02-09T22:02:29.088Z,39.07
2023-02-09T22:04:57.874Z,46.00
2023-02-09T22:07:26.597Z,32.73
2023-02-09T22:09:55.333Z,23.70
2023-02-09T22:12:23.880Z,27.57
2023-02-09T22:14:52.522Z,29.07
2023-02-09T22:17:21.187Z,18.17
2023-02-09T22:19:51.308Z,10.07
2023-02-09T22:22:19.802Z,7.67
2023-02-09T22:24:48.416Z,10.20
2023-02-09T22:27:17.056Z,8.07
2023-02-09T22:29:46.442Z,7.60
2023-02-09T22:32:15.065Z,14.70
2023-02-09T22:34:43.677Z,9.43
2023-02-09T22:37:13.708Z,25.40
2023-02-09T22:39:42.218Z,20.40
2023-02-09T22:42:10.773Z,26.70
2023-02-09T22:44:39.331Z,29.10
2023-02-09T22:47:07.785Z,21.60
2023-02-09T22:49:36.399Z,14.07
2023-02-09T22:52:05.117Z,6.03
2023-02-09T22:54:35.185Z,9.87
2023-02-09T22:57:03.775Z,10.53
2023-02-09T22:59:32.445Z,10.70
2023-02-09T23:02:00.983Z,10.00
2023-02-09T23:04:32.206Z,10.97
2023-02-09T23:07:00.736Z,9.07
2023-02-09T23:09:30.269Z,10.67
2023-02-09T23:12:00.277Z,9.03
2023-02-09T23:14:29.774Z,12.30
2023-02-09T23:16:59.176Z,20.33
2023-02-09T23:19:29.430Z,12.10
2023-02-09T23:21:57.979Z,15.73
2023-02-09T23:24:27.304Z,20.50
2023-02-09T23:26:56.277Z,22.20
2023-02-09T23:29:26.852Z,23.90
2023-02-09T23:31:56.072Z,17.27
2023-02-09T23:34:25.097Z,12.63
2023-02-09T23:36:53.700Z,8.80
2023-02-09T23:39:25.863Z,7.73
2023-02-09T23:41:54.420Z,6.47
2023-02-09T23:44:23.021Z,5.87
2023-02-09T23:46:53.006Z,8.07
2023-02-09T23:49:22.930Z,7.63
2023-02-09T23:51:51.524Z,12.30
2023-02-09T23:54:20.003Z,10.40
2023-02-09T23:56:50.599Z,9.73
2023-02-09T23:59:19.076Z,17.07
